sensor_id;sensor_type;location;lat;lon;timestamp;temperature;humidity
14471;DHT22;7321;50.802;4.336;2023-03-21T00:01:16;12.90;99.90
14471;DHT22;7321;50.802;4.336;2023-03-21T00:03:42;12.90;99.90
14471;DHT22;7321;50.802;4.336;2023-03-21T00:06:11;12.80;99.90
14471;DHT22;7321;50.802;4.336;2023-03-21T00:08:37;12.80;99.90
14471;DHT22;7321;50.802;4.336;2023-03-21T00:11:06;12.80;99.90
14471;DHT22;7321;50.802;4.336;2023-03-21T00:13:33;12.70;99.90
14471;DHT22;7321;50.802;4.336;2023-03-21T00:16:04;12.70;99.90
14471;DHT22;7321;50.802;4.336;2023-03-21T00:18:31;12.70;99.90
14471;DHT22;7321;50.802;4.336;2023-03-21T00:21:02;12.60;99.90
14471;DHT22;7321;50.802;4.336;2023-03-21T00:23:29;12.50;99.90
14471;DHT22;7321;50.802;4.336;2023-03-21T00:25:56;12.50;99.90
14471;DHT22;7321;50.802;4.336;2023-03-21T00:28:22;12.40;99.90
14471;DHT22;7321;50.802;4.336;2023-03-21T00:30:48;12.30;99.90
14471;DHT22;7321;50.802;4.336;2023-03-21T00:33:14;12.40;99.90
14471;DHT22;7321;50.802;4.336;2023-03-21T00:35:41;12.40;99.90
14471;DHT22;7321;50.802;4.336;2023-03-21T00:38:13;12.50;99.90
14471;DHT22;7321;50.802;4.336;2023-03-21T00:40:39;12.50;99.90
14471;DHT22;7321;50.802;4.336;2023-03-21T00:43:05;12.60;99.90
14471;DHT22;7321;50.802;4.336;2023-03-21T00:45:31;12.50;99.90
14471;DHT22;7321;50.802;4.336;2023-03-21T00:47:57;12.40;99.90
14471;DHT22;7321;50.802;4.336;2023-03-21T00:50:23;12.40;99.90
14471;DHT22;7321;50.802;4.336;2023-03-21T00:52:50;12.50;99.90
14471;DHT22;7321;50.802;4.336;2023-03-21T00:55:17;12.50;99.90
14471;DHT22;7321;50.802;4.336;2023-03-21T00:57:43;12.50;99.90
14471;DHT22;7321;50.802;4.336;2023-03-21T01:00:11;12.40;99.90
14471;DHT22;7321;50.802;4.336;2023-03-21T01:02:38;12.50;99.90
14471;DHT22;7321;50.802;4.336;2023-03-21T01:05:29;12.60;99.90
14471;DHT22;7321;50.802;4.336;2023-03-21T01:08:15;12.70;99.90
14471;DHT22;7321;50.802;4.336;2023-03-21T01:10:46;12.60;99.90
14471;DHT22;7321;50.802;4.336;2023-03-21T01:13:15;12.70;99.90
14471;DHT22;7321;50.802;4.336;2023-03-21T01:15:50;12.70;99.90
14471;DHT22;7321;50.802;4.336;2023-03-21T01:18:18;12.80;99.90
14471;DHT22;7321;50.802;4.336;2023-03-21T01:20:45;12.90;99.90
14471;DHT22;7321;50.802;4.336;2023-03-21T01:23:13;13.00;99.90
14471;DHT22;7321;50.802;4.336;2023-03-21T01:25:40;12.80;99.90
14471;DHT22;7321;50.802;4.336;2023-03-21T01:28:06;12.90;99.90
14471;DHT22;7321;50.802;4.336;2023-03-21T01:30:33;12.90;99.90
14471;DHT22;7321;50.802;4.336;2023-03-21T01:32:59;12.90;99.90
14471;DHT22;7321;50.802;4.336;2023-03-21T01:35:25;12.90;99.90
14471;DHT22;7321;50.802;4.336;2023-03-21T01:37:51;12.90;99.90
14471;DHT22;7321;50.802;4.336;2023-03-21T01:40:25;12.90;99.90
14471;DHT22;7321;50.802;4.336;2023-03-21T01:42:51;13.00;99.90
14471;DHT22;7321;50.802;4.336;2023-03-21T01:48:21;12.90;99.90
14471;DHT22;7321;50.802;4.336;2023-03-21T01:50:48;12.80;99.90
14471;DHT22;7321;50.802;4.336;2023-03-21T01:53:16;12.70;99.90
14471;DHT22;7321;50.802;4.336;2023-03-21T01:55:43;12.80;99.90
14471;DHT22;7321;50.802;4.336;2023-03-21T01:58:10;12.80;99.90
14471;DHT22;7321;50.802;4.336;2023-03-21T02:00:37;12.70;99.90
14471;DHT22;7321;50.802;4.336;2023-03-21T02:03:05;12.70;99.90
14471;DHT22;7321;50.802;4.336;2023-03-21T02:06:00;12.80;99.90
14471;DHT22;7321;50.802;4.336;2023-03-21T02:08:29;12.80;99.90
14471;DHT22;7321;50.802;4.336;2023-03-21T02:10:56;12.80;99.90
14471;DHT22;7321;50.802;4.336;2023-03-21T02:13:22;12.80;99.90
14471;DHT22;7321;50.802;4.336;2023-03-21T02:35:28;13.00;99.90
14471;DHT22;7321;50.802;4.336;2023-03-21T02:38:16;13.10;99.90
14471;DHT22;7321;50.802;4.336;2023-03-21T02:41:04;13.00;99.90
14471;DHT22;7321;50.802;4.336;2023-03-21T02:46:15;13.10;99.90
14471;DHT22;7321;50.802;4.336;2023-03-21T02:51:21;13.20;99.90
14471;DHT22;7321;50.802;4.336;2023-03-21T02:54:03;13.10;99.90
14471;DHT22;7321;50.802;4.336;2023-03-21T02:56:31;13.10;99.90
14471;DHT22;7321;50.802;4.336;2023-03-21T02:58:59;13.10;99.90
14471;DHT22;7321;50.802;4.336;2023-03-21T03:01:25;13.20;99.90
14471;DHT22;7321;50.802;4.336;2023-03-21T03:03:51;13.20;99.90
14471;DHT22;7321;50.802;4.336;2023-03-21T03:06:28;13.20;99.90
14471;DHT22;7321;50.802;4.336;2023-03-21T03:11:43;13.30;99.90
14471;DHT22;7321;50.802;4.336;2023-03-21T03:14:50;13.20;99.90
14471;DHT22;7321;50.802;4.336;2023-03-21T03:17:20;13.20;99.90
14471;DHT22;7321;50.802;4.336;2023-03-21T03:22:57;13.30;99.90
14471;DHT22;7321;50.802;4.336;2023-03-21T03:28:24;13.20;99.90
14471;DHT22;7321;50.802;4.336;2023-03-21T03:30:51;13.30;99.90
14471;DHT22;7321;50.802;4.336;2023-03-21T03:33:19;13.20;99.90
14471;DHT22;7321;50.802;4.336;2023-03-21T03:35:48;13.20;99.90
14471;DHT22;7321;50.802;4.336;2023-03-21T03:38:16;13.30;99.90
14471;DHT22;7321;50.802;4.336;2023-03-21T03:40:49;13.20;99.90
14471;DHT22;7321;50.802;4.336;2023-03-21T03:43:23;13.30;99.90
14471;DHT22;7321;50.802;4.336;2023-03-21T03:45:59;13.20;99.90
14471;DHT22;7321;50.802;4.336;2023-03-21T03:48:31;13.30;99.90
14471;DHT22;7321;50.802;4.336;2023-03-21T03:51:05;13.30;99.90
14471;DHT22;7321;50.802;4.336;2023-03-21T03:53:45;13.20;99.90
14471;DHT22;7321;50.802;4.336;2023-03-21T03:56:16;13.10;99.90
14471;DHT22;7321;50.802;4.336;2023-03-21T03:58:41;13.00;99.90
14471;DHT22;7321;50.802;4.336;2023-03-21T04:01:07;13.00;99.90
14471;DHT22;7321;50.802;4.336;2023-03-21T04:03:39;13.00;99.90
14471;DHT22;7321;50.802;4.336;2023-03-21T04:06:05;12.80;99.90
14471;DHT22;7321;50.802;4.336;2023-03-21T04:08:31;12.90;99.90
14471;DHT22;7321;50.802;4.336;2023-03-21T04:10:57;12.90;99.90
14471;DHT22;7321;50.802;4.336;2023-03-21T04:13:23;13.00;99.90
14471;DHT22;7321;50.802;4.336;2023-03-21T04:15:48;13.10;99.90
14471;DHT22;7321;50.802;4.336;2023-03-21T04:18:14;13.00;99.90
14471;DHT22;7321;50.802;4.336;2023-03-21T04:20:40;13.10;99.90
14471;DHT22;7321;50.802;4.336;2023-03-21T04:23:06;13.00;99.90
14471;DHT22;7321;50.802;4.336;2023-03-21T04:25:34;13.10;99.90
14471;DHT22;7321;50.802;4.336;2023-03-21T04:28:00;13.10;99.90
14471;DHT22;7321;50.802;4.336;2023-03-21T04:30:25;13.10;99.90
14471;DHT22;7321;50.802;4.336;2023-03-21T04:32:51;13.00;99.90
14471;DHT22;7321;50.802;4.336;2023-03-21T04:35:26;13.00;99.90
14471;DHT22;7321;50.802;4.336;2023-03-21T04:37:53;12.90;99.90
14471;DHT22;7321;50.802;4.336;2023-03-21T04:40:20;13.00;99.90
14471;DHT22;7321;50.802;4.336;2023-03-21T04:42:47;13.00;99.90
14471;DHT22;7321;50.802;4.336;2023-03-21T04:45:14;13.00;99.90
14471;DHT22;7321;50.802;4.336;2023-03-21T04:47:40;13.10;99.90
14471;DHT22;7321;50.802;4.336;2023-03-21T04:50:07;13.10;99.90
14471;DHT22;7321;50.802;4.336;2023-03-21T04:52:34;13.10;99.90
14471;DHT22;7321;50.802;4.336;2023-03-21T04:55:00;13.10;99.90
14471;DHT22;7321;50.802;4.336;2023-03-21T04:57:26;13.20;99.90
14471;DHT22;7321;50.802;4.336;2023-03-21T04:59:52;13.20;99.90
14471;DHT22;7321;50.802;4.336;2023-03-21T05:02:18;13.30;99.90
14471;DHT22;7321;50.802;4.336;2023-03-21T05:04:44;13.40;99.90
14471;DHT22;7321;50.802;4.336;2023-03-21T05:07:10;13.40;99.90
14471;DHT22;7321;50.802;4.336;2023-03-21T05:09:36;13.40;99.90
14471;DHT22;7321;50.802;4.336;2023-03-21T05:12:02;13.40;99.90
14471;DHT22;7321;50.802;4.336;2023-03-21T05:14:28;13.40;99.90
14471;DHT22;7321;50.802;4.336;2023-03-21T05:16:54;13.30;99.90
14471;DHT22;7321;50.802;4.336;2023-03-21T05:19:29;13.10;99.90
14471;DHT22;7321;50.802;4.336;2023-03-21T05:22:09;13.20;99.90
14471;DHT22;7321;50.802;4.336;2023-03-21T05:24:37;13.30;99.90
14471;DHT22;7321;50.802;4.336;2023-03-21T05:27:06;13.20;99.90
14471;DHT22;7321;50.802;4.336;2023-03-21T05:29:33;13.30;99.90
14471;DHT22;7321;50.802;4.336;2023-03-21T05:31:59;13.40;99.90
14471;DHT22;7321;50.802;4.336;2023-03-21T05:34:25;13.50;99.90
14471;DHT22;7321;50.802;4.336;2023-03-21T05:36:52;13.50;99.90
14471;DHT22;7321;50.802;4.336;2023-03-21T05:39:18;13.30;99.90
14471;DHT22;7321;50.802;4.336;2023-03-21T05:41:45;13.40;99.90
14471;DHT22;7321;50.802;4.336;2023-03-21T05:44:11;13.40;99.90
14471;DHT22;7321;50.802;4.336;2023-03-21T05:46:36;13.40;99.90
14471;DHT22;7321;50.802;4.336;2023-03-21T05:49:02;13.40;99.90
14471;DHT22;7321;50.802;4.336;2023-03-21T05:51:28;13.40;99.90
14471;DHT22;7321;50.802;4.336;2023-03-21T05:53:54;13.40;99.90
14471;DHT22;7321;50.802;4.336;2023-03-21T05:56:20;13.40;99.90
14471;DHT22;7321;50.802;4.336;2023-03-21T05:58:46;13.30;99.90
14471;DHT22;7321;50.802;4.336;2023-03-21T06:01:12;13.30;99.90
14471;DHT22;7321;50.802;4.336;2023-03-21T06:03:38;13.30;99.90
14471;DHT22;7321;50.802;4.336;2023-03-21T06:06:04;13.40;99.90
14471;DHT22;7321;50.802;4.336;2023-03-21T06:08:31;13.40;99.90
14471;DHT22;7321;50.802;4.336;2023-03-21T06:10:57;13.20;99.90
14471;DHT22;7321;50.802;4.336;2023-03-21T06:13:23;13.30;99.90
14471;DHT22;7321;50.802;4.336;2023-03-21T06:15:48;13.30;99.90
14471;DHT22;7321;50.802;4.336;2023-03-21T06:18:14;13.20;99.90
14471;DHT22;7321;50.802;4.336;2023-03-21T06:20:40;13.20;99.90
14471;DHT22;7321;50.802;4.336;2023-03-21T06:23:06;13.10;99.90
14471;DHT22;7321;50.802;4.336;2023-03-21T06:25:32;12.90;99.90
14471;DHT22;7321;50.802;4.336;2023-03-21T06:27:57;12.90;99.90
14471;DHT22;7321;50.802;4.336;2023-03-21T06:30:23;12.90;99.90
14471;DHT22;7321;50.802;4.336;2023-03-21T06:32:49;12.70;99.90
14471;DHT22;7321;50.802;4.336;2023-03-21T06:35:15;12.60;99.90
14471;DHT22;7321;50.802;4.336;2023-03-21T06:37:41;12.70;99.90
14471;DHT22;7321;50.802;4.336;2023-03-21T06:40:08;12.80;99.90
14471;DHT22;7321;50.802;4.336;2023-03-21T06:42:34;12.90;99.90
14471;DHT22;7321;50.802;4.336;2023-03-21T06:45:00;12.80;99.90
14471;DHT22;7321;50.802;4.336;2023-03-21T06:47:26;12.80;99.90
14471;DHT22;7321;50.802;4.336;2023-03-21T06:49:52;12.80;99.90
14471;DHT22;7321;50.802;4.336;2023-03-21T06:52:18;12.90;99.90
14471;DHT22;7321;50.802;4.336;2023-03-21T06:54:44;12.90;99.90
14471;DHT22;7321;50.802;4.336;2023-03-21T06:57:10;12.80;99.90
14471;DHT22;7321;50.802;4.336;2023-03-21T06:59:36;12.90;99.90
14471;DHT22;7321;50.802;4.336;2023-03-21T07:02:02;12.90;99.90
14471;DHT22;7321;50.802;4.336;2023-03-21T07:04:28;12.90;99.90
14471;DHT22;7321;50.802;4.336;2023-03-21T07:06:53;12.70;99.90
14471;DHT22;7321;50.802;4.336;2023-03-21T07:09:20;12.60;99.90
14471;DHT22;7321;50.802;4.336;2023-03-21T07:11:49;12.50;99.90
14471;DHT22;7321;50.802;4.336;2023-03-21T07:14:18;12.60;99.90
14471;DHT22;7321;50.802;4.336;2023-03-21T07:16:44;12.60;99.90
14471;DHT22;7321;50.802;4.336;2023-03-21T07:19:10;12.40;99.90
14471;DHT22;7321;50.802;4.336;2023-03-21T07:21:35;12.50;99.90
14471;DHT22;7321;50.802;4.336;2023-03-21T07:24:01;12.50;99.90
14471;DHT22;7321;50.802;4.336;2023-03-21T07:26:27;12.60;99.90
14471;DHT22;7321;50.802;4.336;2023-03-21T07:28:53;12.90;99.90
14471;DHT22;7321;50.802;4.336;2023-03-21T07:31:20;12.90;99.90
14471;DHT22;7321;50.802;4.336;2023-03-21T07:33:46;12.90;99.90
14471;DHT22;7321;50.802;4.336;2023-03-21T07:36:12;12.90;99.90
14471;DHT22;7321;50.802;4.336;2023-03-21T07:38:41;12.80;99.90
14471;DHT22;7321;50.802;4.336;2023-03-21T07:41:07;12.80;99.90
14471;DHT22;7321;50.802;4.336;2023-03-21T07:43:33;13.00;99.90
14471;DHT22;7321;50.802;4.336;2023-03-21T07:45:59;13.10;99.90
14471;DHT22;7321;50.802;4.336;2023-03-21T07:48:26;13.10;99.90
14471;DHT22;7321;50.802;4.336;2023-03-21T07:50:52;13.10;99.90
14471;DHT22;7321;50.802;4.336;2023-03-21T07:53:18;13.00;99.90
14471;DHT22;7321;50.802;4.336;2023-03-21T07:55:44;13.10;99.90
14471;DHT22;7321;50.802;4.336;2023-03-21T07:58:10;13.00;99.90
14471;DHT22;7321;50.802;4.336;2023-03-21T08:00:36;13.20;99.90
14471;DHT22;7321;50.802;4.336;2023-03-21T08:03:02;13.20;99.90
14471;DHT22;7321;50.802;4.336;2023-03-21T08:05:32;13.00;99.90
14471;DHT22;7321;50.802;4.336;2023-03-21T08:07:58;13.10;99.90
14471;DHT22;7321;50.802;4.336;2023-03-21T08:10:25;13.00;99.90
14471;DHT22;7321;50.802;4.336;2023-03-21T08:12:51;13.00;99.90
14471;DHT22;7321;50.802;4.336;2023-03-21T08:15:18;12.90;99.90
14471;DHT22;7321;50.802;4.336;2023-03-21T08:17:44;12.90;99.90
14471;DHT22;7321;50.802;4.336;2023-03-21T08:20:16;13.00;99.90
14471;DHT22;7321;50.802;4.336;2023-03-21T08:22:42;13.00;99.90
14471;DHT22;7321;50.802;4.336;2023-03-21T08:25:10;13.10;99.90
14471;DHT22;7321;50.802;4.336;2023-03-21T08:27:42;13.20;99.90
14471;DHT22;7321;50.802;4.336;2023-03-21T08:30:10;13.20;99.90
14471;DHT22;7321;50.802;4.336;2023-03-21T08:32:37;13.30;99.90
14471;DHT22;7321;50.802;4.336;2023-03-21T08:35:05;13.30;99.90
14471;DHT22;7321;50.802;4.336;2023-03-21T08:37:36;13.40;99.90
14471;DHT22;7321;50.802;4.336;2023-03-21T08:40:05;13.40;99.90
14471;DHT22;7321;50.802;4.336;2023-03-21T08:42:34;13.50;99.90
14471;DHT22;7321;50.802;4.336;2023-03-21T08:45:00;13.40;99.90
14471;DHT22;7321;50.802;4.336;2023-03-21T08:47:26;13.50;99.90
14471;DHT22;7321;50.802;4.336;2023-03-21T08:49:51;13.50;99.90
14471;DHT22;7321;50.802;4.336;2023-03-21T08:52:17;13.70;99.90
14471;DHT22;7321;50.802;4.336;2023-03-21T08:54:43;13.80;99.90
14471;DHT22;7321;50.802;4.336;2023-03-21T08:57:10;13.90;99.90
14471;DHT22;7321;50.802;4.336;2023-03-21T08:59:36;14.00;99.90
14471;DHT22;7321;50.802;4.336;2023-03-21T09:02:02;14.00;99.90
14471;DHT22;7321;50.802;4.336;2023-03-21T09:04:28;14.10;99.90
14471;DHT22;7321;50.802;4.336;2023-03-21T09:06:56;14.20;99.90
14471;DHT22;7321;50.802;4.336;2023-03-21T09:09:22;14.50;99.90
14471;DHT22;7321;50.802;4.336;2023-03-21T09:11:48;14.60;99.90
14471;DHT22;7321;50.802;4.336;2023-03-21T09:14:14;14.50;99.90
14471;DHT22;7321;50.802;4.336;2023-03-21T09:16:40;14.50;99.90
14471;DHT22;7321;50.802;4.336;2023-03-21T09:19:05;14.50;99.90
14471;DHT22;7321;50.802;4.336;2023-03-21T09:21:33;14.50;99.90
14471;DHT22;7321;50.802;4.336;2023-03-21T09:24:00;14.50;99.90
14471;DHT22;7321;50.802;4.336;2023-03-21T09:26:27;14.40;99.90
14471;DHT22;7321;50.802;4.336;2023-03-21T09:28:54;14.40;99.90
14471;DHT22;7321;50.802;4.336;2023-03-21T09:31:21;14.30;99.90
14471;DHT22;7321;50.802;4.336;2023-03-21T09:33:51;14.10;99.90
14471;DHT22;7321;50.802;4.336;2023-03-21T09:36:18;14.20;99.90
14471;DHT22;7321;50.802;4.336;2023-03-21T09:38:46;14.40;99.90
14471;DHT22;7321;50.802;4.336;2023-03-21T09:46:42;14.60;99.90
14471;DHT22;7321;50.802;4.336;2023-03-21T09:49:15;14.70;99.90
14471;DHT22;7321;50.802;4.336;2023-03-21T09:51:45;14.80;99.90
14471;DHT22;7321;50.802;4.336;2023-03-21T09:54:29;14.80;99.90
14471;DHT22;7321;50.802;4.336;2023-03-21T10:00:00;15.10;99.90
14471;DHT22;7321;50.802;4.336;2023-03-21T10:02:48;15.10;99.90
14471;DHT22;7321;50.802;4.336;2023-03-21T10:05:27;14.90;99.90
14471;DHT22;7321;50.802;4.336;2023-03-21T10:08:17;15.00;99.90
14471;DHT22;7321;50.802;4.336;2023-03-21T10:10:52;15.00;99.90
14471;DHT22;7321;50.802;4.336;2023-03-21T10:13:26;14.90;99.90
14471;DHT22;7321;50.802;4.336;2023-03-21T10:15:56;15.10;99.90
14471;DHT22;7321;50.802;4.336;2023-03-21T10:18:25;15.20;99.90
14471;DHT22;7321;50.802;4.336;2023-03-21T10:20:52;15.30;99.90
14471;DHT22;7321;50.802;4.336;2023-03-21T10:23:20;15.30;99.90
14471;DHT22;7321;50.802;4.336;2023-03-21T10:25:53;15.50;99.90
14471;DHT22;7321;50.802;4.336;2023-03-21T10:28:25;15.20;99.90
14471;DHT22;7321;50.802;4.336;2023-03-21T10:31:01;15.30;99.90
14471;DHT22;7321;50.802;4.336;2023-03-21T10:33:35;15.40;99.90
14471;DHT22;7321;50.802;4.336;2023-03-21T10:36:07;15.30;99.90
14471;DHT22;7321;50.802;4.336;2023-03-21T10:38:34;15.50;99.90
14471;DHT22;7321;50.802;4.336;2023-03-21T10:41:02;15.70;99.90
14471;DHT22;7321;50.802;4.336;2023-03-21T10:46:20;16.00;99.90
14471;DHT22;7321;50.802;4.336;2023-03-21T10:48:50;15.80;99.90
14471;DHT22;7321;50.802;4.336;2023-03-21T10:51:19;15.80;99.90
14471;DHT22;7321;50.802;4.336;2023-03-21T10:53:54;15.90;99.90
14471;DHT22;7321;50.802;4.336;2023-03-21T10:56:29;16.00;99.90
14471;DHT22;7321;50.802;4.336;2023-03-21T10:58:57;16.10;99.90
14471;DHT22;7321;50.802;4.336;2023-03-21T11:01:44;16.20;99.90
14471;DHT22;7321;50.802;4.336;2023-03-21T11:04:17;16.40;99.90
14471;DHT22;7321;50.802;4.336;2023-03-21T11:06:49;16.70;99.90
14471;DHT22;7321;50.802;4.336;2023-03-21T11:09:21;16.70;99.90
14471;DHT22;7321;50.802;4.336;2023-03-21T11:14:29;16.70;99.90
14471;DHT22;7321;50.802;4.336;2023-03-21T11:16:57;16.70;99.90
14471;DHT22;7321;50.802;4.336;2023-03-21T11:19:32;16.70;99.90
14471;DHT22;7321;50.802;4.336;2023-03-21T11:22:05;16.70;99.90
14471;DHT22;7321;50.802;4.336;2023-03-21T11:24:32;16.80;99.90
14471;DHT22;7321;50.802;4.336;2023-03-21T11:26:58;16.60;99.90
14471;DHT22;7321;50.802;4.336;2023-03-21T11:29:36;16.50;99.90
14471;DHT22;7321;50.802;4.336;2023-03-21T11:34:45;16.40;99.90
14471;DHT22;7321;50.802;4.336;2023-03-21T11:37:27;16.20;99.90
14471;DHT22;7321;50.802;4.336;2023-03-21T11:40:06;15.80;99.90
14471;DHT22;7321;50.802;4.336;2023-03-21T11:42:40;15.70;99.90
14471;DHT22;7321;50.802;4.336;2023-03-21T11:45:34;15.80;99.90
14471;DHT22;7321;50.802;4.336;2023-03-21T11:48:04;16.00;99.90
14471;DHT22;7321;50.802;4.336;2023-03-21T11:50:44;16.10;99.90
14471;DHT22;7321;50.802;4.336;2023-03-21T11:54:06;16.30;99.90
14471;DHT22;7321;50.802;4.336;2023-03-21T12:01:39;16.30;99.90
14471;DHT22;7321;50.802;4.336;2023-03-21T12:06:52;16.60;99.90
14471;DHT22;7321;50.802;4.336;2023-03-21T12:25:49;16.60;99.90
14471;DHT22;7321;50.802;4.336;2023-03-21T12:28:29;16.60;99.90
14471;DHT22;7321;50.802;4.336;2023-03-21T12:34:16;16.70;99.90
14471;DHT22;7321;50.802;4.336;2023-03-21T12:37:01;16.60;99.90
14471;DHT22;7321;50.802;4.336;2023-03-21T12:39:38;16.70;99.90
14471;DHT22;7321;50.802;4.336;2023-03-21T12:42:40;16.80;99.90
14471;DHT22;7321;50.802;4.336;2023-03-21T12:45:16;16.80;99.90
14471;DHT22;7321;50.802;4.336;2023-03-21T12:47:47;17.10;99.90
14471;DHT22;7321;50.802;4.336;2023-03-21T12:50:31;17.30;99.90
14471;DHT22;7321;50.802;4.336;2023-03-21T12:56:03;17.20;99.90
14471;DHT22;7321;50.802;4.336;2023-03-21T12:58:30;16.90;99.90
14471;DHT22;7321;50.802;4.336;2023-03-21T13:01:02;16.90;99.90
14471;DHT22;7321;50.802;4.336;2023-03-21T13:03:45;17.00;99.90
14471;DHT22;7321;50.802;4.336;2023-03-21T13:06:16;17.20;99.90
14471;DHT22;7321;50.802;4.336;2023-03-21T13:08:59;17.10;99.90
14471;DHT22;7321;50.802;4.336;2023-03-21T13:11:29;17.10;99.90
14471;DHT22;7321;50.802;4.336;2023-03-21T13:14:07;17.20;99.90
14471;DHT22;7321;50.802;4.336;2023-03-21T13:16:50;17.20;99.90
14471;DHT22;7321;50.802;4.336;2023-03-21T13:22:15;17.60;99.90
14471;DHT22;7321;50.802;4.336;2023-03-21T13:24:48;17.80;99.90
14471;DHT22;7321;50.802;4.336;2023-03-21T13:32:41;17.80;99.90
14471;DHT22;7321;50.802;4.336;2023-03-21T13:37:43;17.60;99.90
14471;DHT22;7321;50.802;4.336;2023-03-21T13:40:23;17.70;99.90
14471;DHT22;7321;50.802;4.336;2023-03-21T13:42:55;17.60;99.90
14471;DHT22;7321;50.802;4.336;2023-03-21T13:45:33;17.20;99.90
14471;DHT22;7321;50.802;4.336;2023-03-21T13:48:04;17.20;99.90
14471;DHT22;7321;50.802;4.336;2023-03-21T13:50:48;17.20;99.90
14471;DHT22;7321;50.802;4.336;2023-03-21T13:55:44;17.00;99.90
14471;DHT22;7321;50.802;4.336;2023-03-21T13:58:39;17.10;99.90
14471;DHT22;7321;50.802;4.336;2023-03-21T14:04:05;17.10;99.90
14471;DHT22;7321;50.802;4.336;2023-03-21T14:09:03;16.80;99.90
14471;DHT22;7321;50.802;4.336;2023-03-21T14:11:30;16.80;99.90
14471;DHT22;7321;50.802;4.336;2023-03-21T14:13:58;16.70;99.90
14471;DHT22;7321;50.802;4.336;2023-03-21T14:16:26;16.60;99.90
14471;DHT22;7321;50.802;4.336;2023-03-21T14:18:56;16.70;99.90
14471;DHT22;7321;50.802;4.336;2023-03-21T14:21:26;16.50;99.90
14471;DHT22;7321;50.802;4.336;2023-03-21T14:26:35;16.30;99.90
14471;DHT22;7321;50.802;4.336;2023-03-21T14:29:04;16.10;99.90
14471;DHT22;7321;50.802;4.336;2023-03-21T14:31:31;16.10;99.90
14471;DHT22;7321;50.802;4.336;2023-03-21T14:33:58;15.90;99.90
14471;DHT22;7321;50.802;4.336;2023-03-21T14:36:29;15.90;99.90
14471;DHT22;7321;50.802;4.336;2023-03-21T14:39:15;16.00;99.90
14471;DHT22;7321;50.802;4.336;2023-03-21T14:41:53;16.00;99.90
14471;DHT22;7321;50.802;4.336;2023-03-21T14:44:22;16.20;99.90
14471;DHT22;7321;50.802;4.336;2023-03-21T14:47:04;16.20;99.90
14471;DHT22;7321;50.802;4.336;2023-03-21T14:49:32;16.20;99.90
14471;DHT22;7321;50.802;4.336;2023-03-21T14:52:02;16.40;99.90
14471;DHT22;7321;50.802;4.336;2023-03-21T14:54:28;16.40;99.90
14471;DHT22;7321;50.802;4.336;2023-03-21T14:57:01;16.40;99.90
14471;DHT22;7321;50.802;4.336;2023-03-21T14:59:36;16.40;99.90
14471;DHT22;7321;50.802;4.336;2023-03-21T15:02:13;16.40;99.90
14471;DHT22;7321;50.802;4.336;2023-03-21T15:04:41;16.40;99.90
14471;DHT22;7321;50.802;4.336;2023-03-21T15:07:23;16.60;99.90
14471;DHT22;7321;50.802;4.336;2023-03-21T15:10:04;16.60;99.90
14471;DHT22;7321;50.802;4.336;2023-03-21T15:12:31;16.40;99.90
14471;DHT22;7321;50.802;4.336;2023-03-21T15:14:58;16.40;99.90
14471;DHT22;7321;50.802;4.336;2023-03-21T15:17:25;16.20;99.90
14471;DHT22;7321;50.802;4.336;2023-03-21T15:19:52;16.10;99.90
14471;DHT22;7321;50.802;4.336;2023-03-21T15:22:35;15.90;99.90
14471;DHT22;7321;50.802;4.336;2023-03-21T15:25:06;15.90;99.90
14471;DHT22;7321;50.802;4.336;2023-03-21T15:27:40;15.90;99.90
14471;DHT22;7321;50.802;4.336;2023-03-21T15:30:07;15.90;99.90
14471;DHT22;7321;50.802;4.336;2023-03-21T15:32:42;15.90;99.90
14471;DHT22;7321;50.802;4.336;2023-03-21T15:35:15;15.80;99.90
14471;DHT22;7321;50.802;4.336;2023-03-21T15:37:42;15.70;99.90
14471;DHT22;7321;50.802;4.336;2023-03-21T15:40:18;15.60;99.90
14471;DHT22;7321;50.802;4.336;2023-03-21T15:42:44;15.50;99.90
14471;DHT22;7321;50.802;4.336;2023-03-21T15:45:20;15.50;99.90
14471;DHT22;7321;50.802;4.336;2023-03-21T15:48:06;15.40;99.90
14471;DHT22;7321;50.802;4.336;2023-03-21T15:50:39;15.30;99.90
14471;DHT22;7321;50.802;4.336;2023-03-21T15:53:14;15.20;99.90
14471;DHT22;7321;50.802;4.336;2023-03-21T15:55:47;15.20;99.90
14471;DHT22;7321;50.802;4.336;2023-03-21T15:58:21;15.20;99.90
14471;DHT22;7321;50.802;4.336;2023-03-21T16:01:02;15.10;99.90
14471;DHT22;7321;50.802;4.336;2023-03-21T16:03:32;15.20;99.90
14471;DHT22;7321;50.802;4.336;2023-03-21T16:06:15;15.20;99.90
14471;DHT22;7321;50.802;4.336;2023-03-21T16:11:37;15.30;99.90
14471;DHT22;7321;50.802;4.336;2023-03-21T16:14:04;15.40;99.90
14471;DHT22;7321;50.802;4.336;2023-03-21T16:16:30;15.30;99.90
14471;DHT22;7321;50.802;4.336;2023-03-21T16:18:58;15.30;99.90
14471;DHT22;7321;50.802;4.336;2023-03-21T16:21:26;15.20;99.90
14471;DHT22;7321;50.802;4.336;2023-03-21T16:23:53;15.20;99.90
14471;DHT22;7321;50.802;4.336;2023-03-21T16:26:25;15.40;99.90
14471;DHT22;7321;50.802;4.336;2023-03-21T16:28:52;15.30;99.90
14471;DHT22;7321;50.802;4.336;2023-03-21T16:31:23;15.20;99.90
14471;DHT22;7321;50.802;4.336;2023-03-21T16:33:50;15.20;99.90
14471;DHT22;7321;50.802;4.336;2023-03-21T16:36:19;15.30;99.90
14471;DHT22;7321;50.802;4.336;2023-03-21T16:38:47;15.40;99.90
14471;DHT22;7321;50.802;4.336;2023-03-21T16:41:28;15.40;99.90
14471;DHT22;7321;50.802;4.336;2023-03-21T16:43:54;15.40;99.90
14471;DHT22;7321;50.802;4.336;2023-03-21T16:46:24;15.70;99.90
14471;DHT22;7321;50.802;4.336;2023-03-21T16:48:53;15.90;99.90
14471;DHT22;7321;50.802;4.336;2023-03-21T16:51:31;16.00;99.90
14471;DHT22;7321;50.802;4.336;2023-03-21T16:53:57;16.10;99.90
14471;DHT22;7321;50.802;4.336;2023-03-21T16:56:25;15.90;99.90
14471;DHT22;7321;50.802;4.336;2023-03-21T16:58:53;15.80;99.90
14471;DHT22;7321;50.802;4.336;2023-03-21T17:01:20;15.80;99.90
14471;DHT22;7321;50.802;4.336;2023-03-21T17:03:50;15.70;99.90
14471;DHT22;7321;50.802;4.336;2023-03-21T17:06:19;15.70;99.90
14471;DHT22;7321;50.802;4.336;2023-03-21T17:08:45;15.70;99.90
14471;DHT22;7321;50.802;4.336;2023-03-21T17:11:13;15.60;99.90
14471;DHT22;7321;50.802;4.336;2023-03-21T17:13:45;15.50;99.90
14471;DHT22;7321;50.802;4.336;2023-03-21T17:16:16;15.50;99.90
14471;DHT22;7321;50.802;4.336;2023-03-21T17:18:42;15.40;99.90
14471;DHT22;7321;50.802;4.336;2023-03-21T17:23:37;15.20;99.90
14471;DHT22;7321;50.802;4.336;2023-03-21T17:26:02;15.20;99.90
14471;DHT22;7321;50.802;4.336;2023-03-21T17:28:28;15.20;99.90
14471;DHT22;7321;50.802;4.336;2023-03-21T17:30:54;15.20;99.90
14471;DHT22;7321;50.802;4.336;2023-03-21T17:33:20;15.30;99.90
14471;DHT22;7321;50.802;4.336;2023-03-21T17:35:46;15.30;99.90
14471;DHT22;7321;50.802;4.336;2023-03-21T17:38:15;15.20;99.90
14471;DHT22;7321;50.802;4.336;2023-03-21T17:40:42;15.10;99.90
14471;DHT22;7321;50.802;4.336;2023-03-21T17:43:17;15.00;99.90
14471;DHT22;7321;50.802;4.336;2023-03-21T17:45:43;15.10;99.90
14471;DHT22;7321;50.802;4.336;2023-03-21T17:48:09;14.90;99.90
14471;DHT22;7321;50.802;4.336;2023-03-21T17:50:36;15.00;99.90
14471;DHT22;7321;50.802;4.336;2023-03-21T17:53:04;14.90;99.90